sensor_id;sensor_type;location;lat;lon;timestamp;pressure;altitude;pressure_sealevel;temperature
39959;BMP280;25639;53.634;9.880;2022-09-09T00:04:12;155818.13;;;13.94
39959;BMP280;25639;53.634;9.880;2022-09-09T00:06:47;155809.19;;;13.90
39959;BMP280;25639;53.634;9.880;2022-09-09T00:09:16;155810.44;;;13.90
39959;BMP280;25639;53.634;9.880;2022-09-09T00:11:51;155801.50;;;13.87
39959;BMP280;25639;53.634;9.880;2022-09-09T00:14:27;155800.25;;;13.86
39959;BMP280;25639;53.634;9.880;2022-09-09T00:16:59;155802.78;;;13.87
39959;BMP280;25639;53.634;9.880;2022-09-09T00:22:16;155806.59;;;13.89
39959;BMP280;25639;53.634;9.880;2022-09-09T00:24:55;155807.88;;;13.89
39959;BMP280;25639;53.634;9.880;2022-09-09T00:27:27;155807.88;;;13.89
39959;BMP280;25639;53.634;9.880;2022-09-09T00:30:40;155815.56;;;13.92
39959;BMP280;25639;53.634;9.880;2022-09-09T00:32:43;155816.81;;;13.93
39959;BMP280;25639;53.634;9.880;2022-09-09T00:37:50;155824.50;;;13.96
39959;BMP280;25639;53.634;9.880;2022-09-09T00:40:32;155833.44;;;14.00
39959;BMP280;25639;53.634;9.880;2022-09-09T00:48:29;155843.66;;;14.04
39959;BMP280;25639;53.634;9.880;2022-09-09T00:50:57;155844.97;;;14.04
39959;BMP280;25639;53.634;9.880;2022-09-09T00:56:08;155847.50;;;14.05
39959;BMP280;25639;53.634;9.880;2022-09-09T00:58:36;155859.03;;;14.10
39959;BMP280;25639;53.634;9.880;2022-09-09T01:01:05;155867.97;;;14.14
39959;BMP280;25639;53.634;9.880;2022-09-09T01:06:35;155869.22;;;14.14
39959;BMP280;25639;53.634;9.880;2022-09-09T01:14:18;155890.97;;;14.23
39959;BMP280;25639;53.634;9.880;2022-09-09T01:16:46;155869.22;;;14.14
39959;BMP280;25639;53.634;9.880;2022-09-09T01:19:14;155875.66;;;14.17
39959;BMP280;25639;53.634;9.880;2022-09-09T01:21:57;155856.44;;;14.09
39959;BMP280;25639;53.634;9.880;2022-09-09T01:26:56;155857.75;;;14.09
39959;BMP280;25639;53.634;9.880;2022-09-09T01:29:23;155885.88;;;14.21
39959;BMP280;25639;53.634;9.880;2022-09-09T01:31:58;155871.81;;;14.15
39959;BMP280;25639;53.634;9.880;2022-09-09T01:34:25;155833.44;;;14.00
39959;BMP280;25639;53.634;9.880;2022-09-09T01:39:21;155833.44;;;14.00
39959;BMP280;25639;53.634;9.880;2022-09-09T01:41:47;155806.59;;;13.89
39959;BMP280;25639;53.634;9.880;2022-09-09T01:44:12;155789.97;;;13.82
39959;BMP280;25639;53.634;9.880;2022-09-09T01:46:38;155800.25;;;13.86
39959;BMP280;25639;53.634;9.880;2022-09-09T01:49:04;155756.78;;;13.69
39959;BMP280;25639;53.634;9.880;2022-09-09T01:51:30;155763.16;;;13.71
39959;BMP280;25639;53.634;9.880;2022-09-09T01:53:55;155742.72;;;13.63
39959;BMP280;25639;53.634;9.880;2022-09-09T02:04:01;155745.25;;;13.64
39959;BMP280;25639;53.634;9.880;2022-09-09T02:08:54;155756.78;;;13.69
39959;BMP280;25639;53.634;9.880;2022-09-09T02:11:21;155741.41;;;13.63
39959;BMP280;25639;53.634;9.880;2022-09-09T02:13:48;155750.34;;;13.66
39959;BMP280;25639;53.634;9.880;2022-09-09T02:18:44;155728.69;;;13.58
39959;BMP280;25639;53.634;9.880;2022-09-09T02:21:13;155769.56;;;13.74
39959;BMP280;25639;53.634;9.880;2022-09-09T02:23:42;155756.78;;;13.69
39959;BMP280;25639;53.634;9.880;2022-09-09T02:26:08;155767.00;;;13.73
39959;BMP280;25639;53.634;9.880;2022-09-09T02:28:35;155754.19;;;13.68
39959;BMP280;25639;53.634;9.880;2022-09-09T02:31:02;155731.22;;;13.59
39959;BMP280;25639;53.634;9.880;2022-09-09T02:33:28;155727.38;;;13.57
39959;BMP280;25639;53.634;9.880;2022-09-09T02:35:55;155745.25;;;13.64
39959;BMP280;25639;53.634;9.880;2022-09-09T02:38:26;155701.84;;;13.47
39959;BMP280;25639;53.634;9.880;2022-09-09T02:40:53;155683.97;;;13.40
39959;BMP280;25639;53.634;9.880;2022-09-09T02:43:18;155701.84;;;13.47
39959;BMP280;25639;53.634;9.880;2022-09-09T02:45:47;155687.75;;;13.41
39959;BMP280;25639;53.634;9.880;2022-09-09T02:48:18;155682.66;;;13.39
39959;BMP280;25639;53.634;9.880;2022-09-09T02:50:49;155698.00;;;13.45
39959;BMP280;25639;53.634;9.880;2022-09-09T02:53:20;155708.22;;;13.49
39959;BMP280;25639;53.634;9.880;2022-09-09T02:55:48;155676.28;;;13.37
39959;BMP280;25639;53.634;9.880;2022-09-09T02:58:14;155666.06;;;13.32
39959;BMP280;25639;53.634;9.880;2022-09-09T03:00:42;155643.00;;;13.23
39959;BMP280;25639;53.634;9.880;2022-09-09T03:03:08;155637.88;;;13.21
39959;BMP280;25639;53.634;9.880;2022-09-09T03:05:36;155631.53;;;13.19
39959;BMP280;25639;53.634;9.880;2022-09-09T03:08:02;155613.63;;;13.11
39959;BMP280;25639;53.634;9.880;2022-09-09T03:10:28;155651.94;;;13.27
39959;BMP280;25639;53.634;9.880;2022-09-09T03:12:53;155604.69;;;13.08
39959;BMP280;25639;53.634;9.880;2022-09-09T03:15:18;155620.00;;;13.14
39959;BMP280;25639;53.634;9.880;2022-09-09T03:17:44;155634.06;;;13.20
39959;BMP280;25639;53.634;9.880;2022-09-09T03:20:09;155631.53;;;13.19
39959;BMP280;25639;53.634;9.880;2022-09-09T03:22:34;155626.41;;;13.16
39959;BMP280;25639;53.634;9.880;2022-09-09T03:25:05;155575.31;;;12.96
39959;BMP280;25639;53.634;9.880;2022-09-09T03:27:31;155577.88;;;12.97
39959;BMP280;25639;53.634;9.880;2022-09-09T03:29:56;155590.66;;;13.02
39959;BMP280;25639;53.634;9.880;2022-09-09T03:32:22;155561.25;;;12.90
39959;BMP280;25639;53.634;9.880;2022-09-09T03:34:48;155544.66;;;12.84
39959;BMP280;25639;53.634;9.880;2022-09-09T03:37:14;155570.19;;;12.94
39959;BMP280;25639;53.634;9.880;2022-09-09T03:39:39;155525.50;;;12.76
39959;BMP280;25639;53.634;9.880;2022-09-09T03:42:05;155528.06;;;12.77
39959;BMP280;25639;53.634;9.880;2022-09-09T03:44:31;155498.69;;;12.65
39959;BMP280;25639;53.634;9.880;2022-09-09T03:46:56;155515.28;;;12.72
39959;BMP280;25639;53.634;9.880;2022-09-09T03:49:21;155506.34;;;12.68
39959;BMP280;25639;53.634;9.880;2022-09-09T03:51:47;155475.69;;;12.56
39959;BMP280;25639;53.634;9.880;2022-09-09T03:54:13;155465.47;;;12.52
39959;BMP280;25639;53.634;9.880;2022-09-09T03:56:38;155482.06;;;12.58
39959;BMP280;25639;53.634;9.880;2022-09-09T03:59:03;155433.53;;;12.39
39959;BMP280;25639;53.634;9.880;2022-09-09T04:01:29;155419.50;;;12.33
39959;BMP280;25639;53.634;9.880;2022-09-09T04:03:54;155414.41;;;12.31
39959;BMP280;25639;53.634;9.880;2022-09-09T04:06:22;155418.25;;;12.33
39959;BMP280;25639;53.634;9.880;2022-09-09T04:08:47;155396.53;;;12.24
39959;BMP280;25639;53.634;9.880;2022-09-09T04:11:13;155404.22;;;12.27
39959;BMP280;25639;53.634;9.880;2022-09-09T04:13:39;155433.53;;;12.39
39959;BMP280;25639;53.634;9.880;2022-09-09T04:16:04;155433.53;;;12.39
39959;BMP280;25639;53.634;9.880;2022-09-09T04:18:29;155424.59;;;12.35
39959;BMP280;25639;53.634;9.880;2022-09-09T04:20:55;155401.63;;;12.26
39959;BMP280;25639;53.634;9.880;2022-09-09T04:23:22;155408.03;;;12.29
39959;BMP280;25639;53.634;9.880;2022-09-09T04:25:49;155411.84;;;12.30
39959;BMP280;25639;53.634;9.880;2022-09-09T04:28:15;155423.34;;;12.35
39959;BMP280;25639;53.634;9.880;2022-09-09T04:30:41;155383.75;;;12.19
39959;BMP280;25639;53.634;9.880;2022-09-09T04:33:06;155385.03;;;12.19
39959;BMP280;25639;53.634;9.880;2022-09-09T04:35:32;155372.31;;;12.14
39959;BMP280;25639;53.634;9.880;2022-09-09T04:37:58;155372.31;;;12.14
39959;BMP280;25639;53.634;9.880;2022-09-09T04:40:23;155367.16;;;12.12
39959;BMP280;25639;53.634;9.880;2022-09-09T04:42:48;155350.59;;;12.06
39959;BMP280;25639;53.634;9.880;2022-09-09T04:45:15;155353.13;;;12.07
39959;BMP280;25639;53.634;9.880;2022-09-09T04:47:40;155391.44;;;12.22
39959;BMP280;25639;53.634;9.880;2022-09-09T04:50:06;155410.56;;;12.30
39959;BMP280;25639;53.634;9.880;2022-09-09T04:52:33;155413.13;;;12.31
39959;BMP280;25639;53.634;9.880;2022-09-09T04:54:58;155413.13;;;12.31
39959;BMP280;25639;53.634;9.880;2022-09-09T04:57:23;155425.91;;;12.36
39959;BMP280;25639;53.634;9.880;2022-09-09T04:59:49;155468.03;;;12.53
39959;BMP280;25639;53.634;9.880;2022-09-09T05:02:15;155464.19;;;12.51
39959;BMP280;25639;53.634;9.880;2022-09-09T05:04:40;155420.78;;;12.34
39959;BMP280;25639;53.634;9.880;2022-09-09T05:07:05;155450.16;;;12.46
39959;BMP280;25639;53.634;9.880;2022-09-09T05:09:31;155459.09;;;12.49
39959;BMP280;25639;53.634;9.880;2022-09-09T05:11:56;155462.94;;;12.51
39959;BMP280;25639;53.634;9.880;2022-09-09T05:14:23;155478.22;;;12.57
39959;BMP280;25639;53.634;9.880;2022-09-09T05:16:48;155492.31;;;12.63
39959;BMP280;25639;53.634;9.880;2022-09-09T05:19:14;155498.69;;;12.65
39959;BMP280;25639;53.634;9.880;2022-09-09T05:21:39;155492.31;;;12.63
39959;BMP280;25639;53.634;9.880;2022-09-09T05:24:06;155478.22;;;12.57
39959;BMP280;25639;53.634;9.880;2022-09-09T05:26:31;155476.97;;;12.56
39959;BMP280;25639;53.634;9.880;2022-09-09T05:28:57;155483.34;;;12.59
39959;BMP280;25639;53.634;9.880;2022-09-09T05:31:23;155492.31;;;12.63
39959;BMP280;25639;53.634;9.880;2022-09-09T05:33:53;155517.81;;;12.73
39959;BMP280;25639;53.634;9.880;2022-09-09T05:36:19;155568.94;;;12.93
39959;BMP280;25639;53.634;9.880;2022-09-09T05:38:45;155545.97;;;12.84
39959;BMP280;25639;53.634;9.880;2022-09-09T05:41:11;155544.66;;;12.84
39959;BMP280;25639;53.634;9.880;2022-09-09T05:43:37;155537.00;;;12.81
39959;BMP280;25639;53.634;9.880;2022-09-09T05:46:06;155545.97;;;12.84
39959;BMP280;25639;53.634;9.880;2022-09-09T05:48:33;155554.91;;;12.88
39959;BMP280;25639;53.634;9.880;2022-09-09T05:50:59;155571.47;;;12.94
39959;BMP280;25639;53.634;9.880;2022-09-09T05:53:25;155576.56;;;12.96
39959;BMP280;25639;53.634;9.880;2022-09-09T05:55:50;155589.34;;;13.02
39959;BMP280;25639;53.634;9.880;2022-09-09T05:58:15;155618.75;;;13.13
39959;BMP280;25639;53.634;9.880;2022-09-09T06:00:41;155654.50;;;13.28
39959;BMP280;25639;53.634;9.880;2022-09-09T06:03:08;155666.06;;;13.32
39959;BMP280;25639;53.634;9.880;2022-09-09T06:05:34;155719.75;;;13.54
39959;BMP280;25639;53.634;9.880;2022-09-09T06:08:00;155763.16;;;13.71
39959;BMP280;25639;53.634;9.880;2022-09-09T06:10:25;155777.25;;;13.77
39959;BMP280;25639;53.634;9.880;2022-09-09T06:12:52;155807.88;;;13.89
39959;BMP280;25639;53.634;9.880;2022-09-09T06:15:17;155880.75;;;14.19
39959;BMP280;25639;53.634;9.880;2022-09-09T06:17:42;155807.88;;;13.89
39959;BMP280;25639;53.634;9.880;2022-09-09T06:20:10;155839.88;;;14.02
39959;BMP280;25639;53.634;9.880;2022-09-09T06:22:35;155821.97;;;13.95
39959;BMP280;25639;53.634;9.880;2022-09-09T06:25:00;155847.50;;;14.05
39959;BMP280;25639;53.634;9.880;2022-09-09T06:27:26;155814.28;;;13.92
39959;BMP280;25639;53.634;9.880;2022-09-09T06:29:52;155809.19;;;13.90
39959;BMP280;25639;53.634;9.880;2022-09-09T06:32:17;155823.22;;;13.96
39959;BMP280;25639;53.634;9.880;2022-09-09T06:34:42;155829.59;;;13.98
39959;BMP280;25639;53.634;9.880;2022-09-09T06:37:07;155865.38;;;14.13
39959;BMP280;25639;53.634;9.880;2022-09-09T06:39:33;155825.75;;;13.97
39959;BMP280;25639;53.634;9.880;2022-09-09T06:41:58;155847.50;;;14.05
39959;BMP280;25639;53.634;9.880;2022-09-09T06:44:24;155855.19;;;14.08
39959;BMP280;25639;53.634;9.880;2022-09-09T06:46:51;155843.66;;;14.04
39959;BMP280;25639;53.634;9.880;2022-09-09T06:49:17;155952.34;;;14.47
39959;BMP280;25639;53.634;9.880;2022-09-09T06:51:42;156007.34;;;14.70
39959;BMP280;25639;53.634;9.880;2022-09-09T06:54:08;156145.47;;;15.25
39959;BMP280;25639;53.634;9.880;2022-09-09T06:56:34;156167.22;;;15.34
39959;BMP280;25639;53.634;9.880;2022-09-09T06:59:01;156073.84;;;14.96
39959;BMP280;25639;53.634;9.880;2022-09-09T07:01:29;156183.84;;;15.40
39959;BMP280;25639;53.634;9.880;2022-09-09T07:03:56;156125.03;;;15.17
39959;BMP280;25639;53.634;9.880;2022-09-09T07:06:24;156050.84;;;14.87
39959;BMP280;25639;53.634;9.880;2022-09-09T07:08:51;156091.75;;;15.03
39959;BMP280;25639;53.634;9.880;2022-09-09T07:11:17;156081.53;;;14.99
39959;BMP280;25639;53.634;9.880;2022-09-09T07:13:43;156075.13;;;14.97
39959;BMP280;25639;53.634;9.880;2022-09-09T07:16:09;156101.97;;;15.07
39959;BMP280;25639;53.634;9.880;2022-09-09T07:18:34;156130.13;;;15.19
39959;BMP280;25639;53.634;9.880;2022-09-09T07:21:00;156130.13;;;15.19
39959;BMP280;25639;53.634;9.880;2022-09-09T07:23:27;156191.53;;;15.43
39959;BMP280;25639;53.634;9.880;2022-09-09T07:25:52;156128.81;;;15.18
39959;BMP280;25639;53.634;9.880;2022-09-09T07:28:18;156187.69;;;15.42
39959;BMP280;25639;53.634;9.880;2022-09-09T07:30:43;156232.47;;;15.60
39959;BMP280;25639;53.634;9.880;2022-09-09T07:33:09;156177.44;;;15.38
39959;BMP280;25639;53.634;9.880;2022-09-09T07:35:37;156183.84;;;15.40
39959;BMP280;25639;53.634;9.880;2022-09-09T07:38:03;156190.22;;;15.43
39959;BMP280;25639;53.634;9.880;2022-09-09T07:40:31;156210.72;;;15.51
39959;BMP280;25639;53.634;9.880;2022-09-09T07:42:56;156195.34;;;15.45
39959;BMP280;25639;53.634;9.880;2022-09-09T07:45:22;156224.78;;;15.57
39959;BMP280;25639;53.634;9.880;2022-09-09T07:47:47;156272.19;;;15.76
39959;BMP280;25639;53.634;9.880;2022-09-09T07:50:13;156308.00;;;15.90
39959;BMP280;25639;53.634;9.880;2022-09-09T07:52:40;156306.69;;;15.90
39959;BMP280;25639;53.634;9.880;2022-09-09T07:55:05;156276.03;;;15.77
39959;BMP280;25639;53.634;9.880;2022-09-09T07:57:31;156265.72;;;15.73
39959;BMP280;25639;53.634;9.880;2022-09-09T07:59:56;156227.38;;;15.58
39959;BMP280;25639;53.634;9.880;2022-09-09T08:02:21;156273.47;;;15.76
39959;BMP280;25639;53.634;9.880;2022-09-09T08:04:47;156311.84;;;15.92
39959;BMP280;25639;53.634;9.880;2022-09-09T08:07:13;156306.69;;;15.90
39959;BMP280;25639;53.634;9.880;2022-09-09T08:09:38;156368.13;;;16.14
39959;BMP280;25639;53.634;9.880;2022-09-09T08:12:04;156380.94;;;16.19
39959;BMP280;25639;53.634;9.880;2022-09-09T08:14:30;156425.72;;;16.37
39959;BMP280;25639;53.634;9.880;2022-09-09T08:16:55;156470.53;;;16.55
39959;BMP280;25639;53.634;9.880;2022-09-09T08:19:22;156537.09;;;16.82
39959;BMP280;25639;53.634;9.880;2022-09-09T08:21:48;156580.69;;;17.00
39959;BMP280;25639;53.634;9.880;2022-09-09T08:24:14;156514.06;;;16.73
39959;BMP280;25639;53.634;9.880;2022-09-09T08:26:43;156606.31;;;17.10
39959;BMP280;25639;53.634;9.880;2022-09-09T08:29:09;156555.06;;;16.89
39959;BMP280;25639;53.634;9.880;2022-09-09T08:31:39;156657.50;;;17.30
39959;BMP280;25639;53.634;9.880;2022-09-09T08:34:05;156749.75;;;17.67
39959;BMP280;25639;53.634;9.880;2022-09-09T08:36:34;156617.81;;;17.14
39959;BMP280;25639;53.634;9.880;2022-09-09T08:39:01;156634.47;;;17.21
39959;BMP280;25639;53.634;9.880;2022-09-09T08:41:30;156575.59;;;16.98
39959;BMP280;25639;53.634;9.880;2022-09-09T08:44:03;156607.59;;;17.10
39959;BMP280;25639;53.634;9.880;2022-09-09T08:46:43;156606.31;;;17.10
39959;BMP280;25639;53.634;9.880;2022-09-09T08:51:36;156498.69;;;16.67
39959;BMP280;25639;53.634;9.880;2022-09-09T08:54:02;156548.69;;;16.87
39959;BMP280;25639;53.634;9.880;2022-09-09T08:56:27;156570.47;;;16.95
39959;BMP280;25639;53.634;9.880;2022-09-09T08:58:56;156653.66;;;17.29
39959;BMP280;25639;53.634;9.880;2022-09-09T09:04:02;156605.00;;;17.09
39959;BMP280;25639;53.634;9.880;2022-09-09T09:11:51;156743.31;;;17.65
39959;BMP280;25639;53.634;9.880;2022-09-09T09:14:39;156833.03;;;18.01
39959;BMP280;25639;53.634;9.880;2022-09-09T09:17:04;156840.72;;;18.04
39959;BMP280;25639;53.634;9.880;2022-09-09T09:19:32;156826.66;;;17.98
39959;BMP280;25639;53.634;9.880;2022-09-09T09:24:55;156721.53;;;17.56
39959;BMP280;25639;53.634;9.880;2022-09-09T09:29:47;156918.91;;;18.35
39959;BMP280;25639;53.634;9.880;2022-09-09T09:32:15;156790.72;;;17.84
39959;BMP280;25639;53.634;9.880;2022-09-09T09:34:41;156815.09;;;17.94
39959;BMP280;25639;53.634;9.880;2022-09-09T09:37:16;156963.75;;;18.53
39959;BMP280;25639;53.634;9.880;2022-09-09T09:39:44;157013.75;;;18.73
39959;BMP280;25639;53.634;9.880;2022-09-09T09:42:11;156954.78;;;18.50
39959;BMP280;25639;53.634;9.880;2022-09-09T09:44:40;156899.66;;;18.27
39959;BMP280;25639;53.634;9.880;2022-09-09T09:49:30;156989.34;;;18.63
39959;BMP280;25639;53.634;9.880;2022-09-09T09:52:00;156898.38;;;18.27
39959;BMP280;25639;53.634;9.880;2022-09-09T09:54:29;156974.00;;;18.57
39959;BMP280;25639;53.634;9.880;2022-09-09T09:56:56;157025.25;;;18.78
39959;BMP280;25639;53.634;9.880;2022-09-09T10:01:53;157181.69;;;19.40
39959;BMP280;25639;53.634;9.880;2022-09-09T10:04:19;157159.94;;;19.32
39959;BMP280;25639;53.634;9.880;2022-09-09T10:06:46;157177.88;;;19.39
39959;BMP280;25639;53.634;9.880;2022-09-09T10:09:24;157275.34;;;19.78
39959;BMP280;25639;53.634;9.880;2022-09-09T10:14:29;157348.47;;;20.07
39959;BMP280;25639;53.634;9.880;2022-09-09T10:17:07;157285.66;;;19.82
39959;BMP280;25639;53.634;9.880;2022-09-09T10:19:38;157293.31;;;19.85
39959;BMP280;25639;53.634;9.880;2022-09-09T10:27:29;157352.34;;;20.09
39959;BMP280;25639;53.634;9.880;2022-09-09T10:32:48;157385.66;;;20.22
39959;BMP280;25639;53.634;9.880;2022-09-09T10:35:31;157390.78;;;20.24
39959;BMP280;25639;53.634;9.880;2022-09-09T10:48:27;157519.16;;;20.75
39959;BMP280;25639;53.634;9.880;2022-09-09T10:51:02;157406.22;;;20.30
39959;BMP280;25639;53.634;9.880;2022-09-09T10:56:07;157326.69;;;19.98
39959;BMP280;25639;53.634;9.880;2022-09-09T10:59:35;157481.91;;;20.61
39959;BMP280;25639;53.634;9.880;2022-09-09T11:01:33;157589.72;;;21.04
39959;BMP280;25639;53.634;9.880;2022-09-09T11:04:09;157335.66;;;20.02
39959;BMP280;25639;53.634;9.880;2022-09-09T11:06:37;157426.72;;;20.38
39959;BMP280;25639;53.634;9.880;2022-09-09T11:09:04;157499.91;;;20.68
39959;BMP280;25639;53.634;9.880;2022-09-09T11:11:39;157519.16;;;20.75
39959;BMP280;25639;53.634;9.880;2022-09-09T11:14:28;157484.50;;;20.62
39959;BMP280;25639;53.634;9.880;2022-09-09T11:19:31;157431.84;;;20.41
39959;BMP280;25639;53.634;9.880;2022-09-09T11:21:59;157270.22;;;19.76
39959;BMP280;25639;53.634;9.880;2022-09-09T11:27:14;157329.25;;;19.99
39959;BMP280;25639;53.634;9.880;2022-09-09T11:29:52;157266.38;;;19.74
39959;BMP280;25639;53.634;9.880;2022-09-09T11:35:02;157366.44;;;20.14
39959;BMP280;25639;53.634;9.880;2022-09-09T11:42:27;157689.81;;;21.44
39959;BMP280;25639;53.634;9.880;2022-09-09T11:44:52;157675.72;;;21.38
39959;BMP280;25639;53.634;9.880;2022-09-09T11:47:23;157673.13;;;21.37
39959;BMP280;25639;53.634;9.880;2022-09-09T11:49:51;157487.09;;;20.63
39959;BMP280;25639;53.634;9.880;2022-09-09T11:52:21;157472.94;;;20.57
39959;BMP280;25639;53.634;9.880;2022-09-09T11:54:48;157721.97;;;21.57
39959;BMP280;25639;53.634;9.880;2022-09-09T11:57:24;157755.38;;;21.70
39959;BMP280;25639;53.634;9.880;2022-09-09T11:59:51;157517.88;;;20.75
39959;BMP280;25639;53.634;9.880;2022-09-09T12:02:24;157648.75;;;21.27
39959;BMP280;25639;53.634;9.880;2022-09-09T12:04:54;157540.97;;;20.84
39959;BMP280;25639;53.634;9.880;2022-09-09T12:07:31;157515.28;;;20.74
39959;BMP280;25639;53.634;9.880;2022-09-09T12:10:05;157544.81;;;20.86
39959;BMP280;25639;53.634;9.880;2022-09-09T12:12:44;157498.59;;;20.67
39959;BMP280;25639;53.634;9.880;2022-09-09T12:25:16;157633.38;;;21.21
39959;BMP280;25639;53.634;9.880;2022-09-09T12:27:46;157788.72;;;21.83
39959;BMP280;25639;53.634;9.880;2022-09-09T12:30:15;157903.06;;;22.29
39959;BMP280;25639;53.634;9.880;2022-09-09T12:32:41;157757.91;;;21.71
39959;BMP280;25639;53.634;9.880;2022-09-09T12:35:39;157775.88;;;21.78
39959;BMP280;25639;53.634;9.880;2022-09-09T12:37:59;157791.31;;;21.84
39959;BMP280;25639;53.634;9.880;2022-09-09T12:40:29;157651.34;;;21.28
39959;BMP280;25639;53.634;9.880;2022-09-09T12:42:56;157674.44;;;21.38
39959;BMP280;25639;53.634;9.880;2022-09-09T12:45:22;157528.13;;;20.79
39959;BMP280;25639;53.634;9.880;2022-09-09T12:47:59;157485.81;;;20.62
39959;BMP280;25639;53.634;9.880;2022-09-09T12:50:29;157420.31;;;20.36
39959;BMP280;25639;53.634;9.880;2022-09-09T12:52:56;157467.81;;;20.55
39959;BMP280;25639;53.634;9.880;2022-09-09T12:55:33;157437.00;;;20.43
39959;BMP280;25639;53.634;9.880;2022-09-09T12:58:03;157422.84;;;20.37
39959;BMP280;25639;53.634;9.880;2022-09-09T13:00:31;157402.34;;;20.29
39959;BMP280;25639;53.634;9.880;2022-09-09T13:02:57;157348.47;;;20.07
39959;BMP280;25639;53.634;9.880;2022-09-09T13:05:27;157257.34;;;19.71
39959;BMP280;25639;53.634;9.880;2022-09-09T13:08:06;157225.31;;;19.58
39959;BMP280;25639;53.634;9.880;2022-09-09T13:10:50;157286.91;;;19.83
39959;BMP280;25639;53.634;9.880;2022-09-09T13:13:23;157200.97;;;19.48
39959;BMP280;25639;53.634;9.880;2022-09-09T13:15:54;157058.66;;;18.91
39959;BMP280;25639;53.634;9.880;2022-09-09T13:18:21;157070.19;;;18.96
39959;BMP280;25639;53.634;9.880;2022-09-09T13:20:48;157013.75;;;18.73
39959;BMP280;25639;53.634;9.880;2022-09-09T13:23:13;156908.63;;;18.31
39959;BMP280;25639;53.634;9.880;2022-09-09T13:25:40;156689.53;;;17.43
39959;BMP280;25639;53.634;9.880;2022-09-09T13:28:18;156596.03;;;17.06
39959;BMP280;25639;53.634;9.880;2022-09-09T13:30:54;156551.22;;;16.88
39959;BMP280;25639;53.634;9.880;2022-09-09T13:33:21;156453.88;;;16.49
39959;BMP280;25639;53.634;9.880;2022-09-09T13:35:49;156515.34;;;16.73
39959;BMP280;25639;53.634;9.880;2022-09-09T13:38:15;156535.84;;;16.82
39959;BMP280;25639;53.634;9.880;2022-09-09T13:40:51;156528.16;;;16.78
39959;BMP280;25639;53.634;9.880;2022-09-09T13:43:19;156511.50;;;16.72
39959;BMP280;25639;53.634;9.880;2022-09-09T13:45:52;156478.22;;;16.58
39959;BMP280;25639;53.634;9.880;2022-09-09T13:48:18;156450.06;;;16.47
39959;BMP280;25639;53.634;9.880;2022-09-09T13:50:44;156434.69;;;16.41
39959;BMP280;25639;53.634;9.880;2022-09-09T13:53:18;156406.56;;;16.30
39959;BMP280;25639;53.634;9.880;2022-09-09T13:55:43;156360.44;;;16.11
39959;BMP280;25639;53.634;9.880;2022-09-09T13:58:14;156374.56;;;16.17
39959;BMP280;25639;53.634;9.880;2022-09-09T14:00:40;156384.78;;;16.21
39959;BMP280;25639;53.634;9.880;2022-09-09T14:03:05;156357.91;;;16.10
39959;BMP280;25639;53.634;9.880;2022-09-09T14:05:32;156383.53;;;16.20
39959;BMP280;25639;53.634;9.880;2022-09-09T14:07:58;156402.69;;;16.28
39959;BMP280;25639;53.634;9.880;2022-09-09T14:10:25;156405.22;;;16.29
39959;BMP280;25639;53.634;9.880;2022-09-09T14:12:50;156398.84;;;16.27
39959;BMP280;25639;53.634;9.880;2022-09-09T14:15:16;156403.97;;;16.29
39959;BMP280;25639;53.634;9.880;2022-09-09T14:17:41;156389.91;;;16.23
39959;BMP280;25639;53.634;9.880;2022-09-09T14:20:07;156430.84;;;16.39
39959;BMP280;25639;53.634;9.880;2022-09-09T14:22:34;156423.19;;;16.36
39959;BMP280;25639;53.634;9.880;2022-09-09T14:25:00;156439.81;;;16.43
39959;BMP280;25639;53.634;9.880;2022-09-09T14:27:25;156450.06;;;16.47
39959;BMP280;25639;53.634;9.880;2022-09-09T14:29:51;156442.38;;;16.44
39959;BMP280;25639;53.634;9.880;2022-09-09T14:32:16;156484.59;;;16.61
39959;BMP280;25639;53.634;9.880;2022-09-09T14:34:42;156468.00;;;16.54
39959;BMP280;25639;53.634;9.880;2022-09-09T14:37:07;156473.13;;;16.56
39959;BMP280;25639;53.634;9.880;2022-09-09T14:39:32;156485.91;;;16.62
39959;BMP280;25639;53.634;9.880;2022-09-09T14:41:57;156493.56;;;16.65
39959;BMP280;25639;53.634;9.880;2022-09-09T14:44:23;156476.97;;;16.58
39959;BMP280;25639;53.634;9.880;2022-09-09T14:46:48;156493.56;;;16.65
39959;BMP280;25639;53.634;9.880;2022-09-09T14:49:15;156487.19;;;16.62
39959;BMP280;25639;53.634;9.880;2022-09-09T14:51:40;156489.72;;;16.63
39959;BMP280;25639;53.634;9.880;2022-09-09T14:54:05;156484.59;;;16.61
39959;BMP280;25639;53.634;9.880;2022-09-09T14:56:32;156484.59;;;16.61
39959;BMP280;25639;53.634;9.880;2022-09-09T14:58:59;156460.31;;;16.51
39959;BMP280;25639;53.634;9.880;2022-09-09T15:01:26;156482.06;;;16.60
39959;BMP280;25639;53.634;9.880;2022-09-09T15:03:55;156482.06;;;16.60
39959;BMP280;25639;53.634;9.880;2022-09-09T15:06:21;156471.81;;;16.56
39959;BMP280;25639;53.634;9.880;2022-09-09T15:08:47;156442.38;;;16.44
39959;BMP280;25639;53.634;9.880;2022-09-09T15:11:13;156414.25;;;16.33
39959;BMP280;25639;53.634;9.880;2022-09-09T15:13:39;156411.66;;;16.32
39959;BMP280;25639;53.634;9.880;2022-09-09T15:16:08;156427.00;;;16.38
39959;BMP280;25639;53.634;9.880;2022-09-09T15:18:34;156420.63;;;16.35
39959;BMP280;25639;53.634;9.880;2022-09-09T15:21:00;156451.34;;;16.48
39959;BMP280;25639;53.634;9.880;2022-09-09T15:23:28;156448.75;;;16.47
39959;BMP280;25639;53.634;9.880;2022-09-09T15:25:53;156447.50;;;16.46
39959;BMP280;25639;53.634;9.880;2022-09-09T15:28:19;156451.34;;;16.48
39959;BMP280;25639;53.634;9.880;2022-09-09T15:30:47;156420.63;;;16.35
39959;BMP280;25639;53.634;9.880;2022-09-09T15:33:12;156398.84;;;16.27
39959;BMP280;25639;53.634;9.880;2022-09-09T15:35:37;156429.56;;;16.39
39959;BMP280;25639;53.634;9.880;2022-09-09T15:38:02;156386.06;;;16.22
39959;BMP280;25639;53.634;9.880;2022-09-09T15:40:29;156398.84;;;16.27
39959;BMP280;25639;53.634;9.880;2022-09-09T15:42:57;156438.53;;;16.43
39959;BMP280;25639;53.634;9.880;2022-09-09T15:45:22;156447.50;;;16.46
39959;BMP280;25639;53.634;9.880;2022-09-09T15:47:47;156430.84;;;16.39
39959;BMP280;25639;53.634;9.880;2022-09-09T15:50:12;156464.16;;;16.53